Ana Sayfa
METAR-TAF:

METAR-TAF

Havaalanları :

Clearfield-Lawrence Airport

Clearfield, Pensilvanya, Amerika Birleşik Devletleri

Enlem: 41-02-48N, Boylam: 078-24-42W, yükseklik: 462 m

Güncel hava durumu gözlemi

Rapor saat 20:54 UTC de 15 dakika önce yapıldı.
Rüzgar güneybatıdan 9 kt
Sıcaklık 9°C
Nem 20%
Basınç 1017 hPa
Görüş mesafesi: 16.1 km
6500 ft yükseklikte çok bulutlu

METAR: KFIG 232054Z AUTO 22009KT 10SM OVC065 09/M13 A3004 RMK AO2 SLP185 T00941128 56014

Saat: 16:09 (21:09 UTC)


TAF: eksik

4.000'den fazla havaalanı için hava durumu gözlemleri ve tahminleri (METAR ve TAF raporları).

Kullanılabilir istasyonlar harita üzerinde sarı ve kırmızı noktalarla gösterilir.

İstasyonun adını görmek için fareyi noktanın üzerinde gezdirin.

Sonrasında hava gözlem ve tahminlerini görmek için tıklayın.

Haritayı değiştirmek için: yaklaştırmak için siyah artı işaretli yeşil düğmeye ve uzaklaştırmak için de eksi işaretli düğmeye hızla tıklayın; bitişik haritalar için yeşil okları kullanın.


METAR-TAF: